Time;durP1;ratioP1;P1;durP2;ratioP2;P2;SDS_P1;SDS_P2;PMS_P1;PMS_P2;Temp;Humidity;BMP_temperature;BMP_pressure;BME280_temperature;BME280_humidity;BME280_pressure;Samples;Min_cycle;Max_cycle;Signal;HPM_P1;HPM_P2
2020/12/01 00:01:27;;;;;;;10.05;8.13;;;;;;;-0.89;77.90;100358.72;1765605;81;21127;-64
2020/12/01 00:03:55;;;;;;;9.35;7.05;;;;;;;-0.90;78.00;100349.75;1765665;81;21052;-64
2020/12/01 00:06:23;;;;;;;11.33;7.33;;;;;;;-0.92;78.11;100352.69;1765627;80;21492;-64
2020/12/01 00:08:51;;;;;;;11.65;7.08;;;;;;;-0.96;78.23;100358.14;1765662;81;21477;-64
2020/12/01 00:11:20;;;;;;;10.32;7.40;;;;;;;-0.96;78.42;100361.98;1765663;81;21343;-64
2020/12/01 00:13:48;;;;;;;11.30;8.30;;;;;;;-0.96;78.44;100366.22;1765583;81;21131;-64
2020/12/01 00:16:16;;;;;;;9.70;6.72;;;;;;;-0.98;78.56;100375.13;1765634;81;21162;-64
2020/12/01 00:18:44;;;;;;;9.73;7.08;;;;;;;-0.98;78.59;100385.34;1765682;81;21060;-64
2020/12/01 00:21:17;;;;;;;11.48;7.85;;;;;;;-0.99;78.56;100386.17;1765809;80;21496;-64
2020/12/01 00:23:44;;;;;;;;;;;;;;;-1.02;78.54;100378.89;1771839;81;21331;-64
2020/12/01 00:26:17;;;;;;;11.57;7.70;;;;;;;-1.04;78.63;100382.69;1769176;81;21985;-64
2020/12/01 00:28:48;;;;;;;;;;;;;;;-1.06;78.77;100384.35;1771835;81;21071;-64
2020/12/01 00:31:18;;;;;;;10.65;7.80;;;;;;;-1.06;78.74;100383.94;1769221;80;20238;-65
2020/12/01 00:33:45;;;;;;;9.55;6.95;;;;;;;-1.06;78.82;100383.94;1769141;79;21063;-64
2020/12/01 00:36:13;;;;;;;8.78;6.50;;;;;;;-1.05;78.73;100379.69;1769241;81;21491;-64
2020/12/01 00:38:41;;;;;;;9.38;7.50;;;;;;;-1.05;78.69;100379.27;1769090;81;21139;-64
2020/12/01 00:41:09;;;;;;;9.95;7.12;;;;;;;-1.06;78.64;100385.63;1769102;81;21086;-64
2020/12/01 00:43:36;;;;;;;8.53;6.47;;;;;;;-1.08;78.43;100379.21;1769137;81;21598;-64
2020/12/01 00:46:04;;;;;;;9.98;7.83;;;;;;;-1.13;78.57;100378.66;1769390;81;21178;-63
2020/12/01 00:48:32;;;;;;;12.37;7.10;;;;;;;-1.14;78.62;100379.49;1769151;81;21262;-64
2020/12/01 00:50:59;;;;;;;8.50;6.87;;;;;;;-1.18;78.68;100374.73;1769094;81;21154;-64
2020/12/01 00:53:27;;;;;;;10.78;7.92;;;;;;;-1.16;78.87;100373.49;1769108;81;21154;-64
2020/12/01 00:55:54;;;;;;;10.28;6.95;;;;;;;-1.17;78.89;100371.35;1769127;81;21071;-64
2020/12/01 00:58:22;;;;;;;9.98;7.25;;;;;;;-1.16;78.68;100358.18;1769179;81;21472;-64
2020/12/01 01:01:04;;;;;;;9.43;7.55;;;;;;;-1.18;78.56;100361.11;1768391;80;21475;-64
2020/12/01 01:03:33;;;;;;;11.25;7.70;;;;;;;-1.22;78.62;100350.01;1751771;81;21087;-64
2020/12/01 01:06:01;;;;;;;11.08;7.47;;;;;;;-1.25;78.75;100346.11;1769312;81;21047;-63
2020/12/01 01:08:29;;;;;;;10.70;7.90;;;;;;;-1.26;78.76;100355.02;1769396;81;21135;-63
2020/12/01 01:10:57;;;;;;;14.85;8.18;;;;;;;-1.29;78.74;100354.95;1769509;80;21130;-63
2020/12/01 01:13:25;;;;;;;11.63;8.48;;;;;;;-1.31;78.80;100354.05;1769526;81;21141;-63
2020/12/01 01:15:54;;;;;;;11.30;7.55;;;;;;;-1.33;78.71;100355.70;1769418;80;21095;-63
2020/12/01 01:18:23;;;;;;;10.65;8.13;;;;;;;-1.38;78.84;100354.33;1769535;80;21048;-63
2020/12/01 01:20:51;;;;;;;10.55;7.92;;;;;;;-1.41;78.86;100355.16;1769525;81;21495;-63
2020/12/01 01:23:19;;;;;;;12.37;8.15;;;;;;;-1.46;79.01;100364.40;1766600;80;21563;-63
2020/12/01 01:25:47;;;;;;;10.95;8.15;;;;;;;-1.47;79.11;100365.23;1765911;81;21193;-63
2020/12/01 01:28:15;;;;;;;11.12;8.53;;;;;;;-1.50;79.19;100366.43;1765842;81;21068;-63
2020/12/01 01:30:43;;;;;;;13.22;8.55;;;;;;;-1.53;79.32;100360.39;1765915;81;21083;-63
2020/12/01 01:33:11;;;;;;;10.70;7.83;;;;;;;-1.51;79.38;100366.39;1765772;81;21143;-63
2020/12/01 01:35:39;;;;;;;11.60;8.23;;;;;;;-1.52;79.29;100364.67;1765662;79;21139;-63
2020/12/01 01:38:07;;;;;;;9.58;7.95;;;;;;;-1.53;79.33;100370.59;1765548;81;21354;-64
2020/12/01 01:40:36;;;;;;;11.57;7.55;;;;;;;-1.52;79.41;100373.19;1765498;81;21075;-64
2020/12/01 01:43:04;;;;;;;11.40;8.98;;;;;;;-1.50;79.33;100373.22;1765808;81;21048;-63
2020/12/01 01:45:41;;;;;;;12.23;8.93;;;;;;;-1.49;79.37;100363.47;1765831;81;21059;-63
2020/12/01 01:48:23;;;;;;;9.75;8.30;;;;;;;-1.49;79.29;100361.77;1765928;81;21087;-63
2020/12/01 01:51:05;;;;;;;11.68;8.63;;;;;;;-1.49;79.27;100368.16;1765678;81;21371;-64
2020/12/01 01:53:36;;;;;;;12.80;9.03;;;;;;;-1.51;79.27;100372.77;1764231;81;21099;-64
2020/12/01 01:56:05;;;;;;;10.93;7.60;;;;;;;-1.53;79.37;100374.02;1765704;81;21488;-64
2020/12/01 01:58:37;;;;;;;10.90;8.25;;;;;;;-1.54;79.37;100369.73;1744538;81;21487;-63
2020/12/01 02:01:11;;;;;;;10.05;7.90;;;;;;;-1.54;79.35;100366.33;1765567;81;21111;-62
2020/12/01 02:03:45;;;;;;;11.43;8.33;;;;;;;-1.60;79.40;100358.12;1765617;81;21367;-64
2020/12/01 02:06:25;;;;;;;12.50;8.45;;;;;;;-1.61;79.46;100360.66;1765593;81;21067;-64
2020/12/01 02:09:01;;;;;;;10.58;7.30;;;;;;;-1.66;79.55;100359.70;1765597;81;21067;-64
2020/12/01 02:11:31;;;;;;;11.38;8.45;;;;;;;-1.69;79.48;100365.59;1765599;81;21126;-64
2020/12/01 02:14:16;;;;;;;11.95;8.00;;;;;;;-1.75;79.53;100361.20;1765590;81;21115;-64
2020/12/01 02:16:48;;;;;;;10.72;7.72;;;;;;;-1.78;79.69;100361.55;1765680;81;21472;-64
2020/12/01 02:19:20;;;;;;;11.35;8.18;;;;;;;-1.78;79.80;100373.88;1765520;81;21055;-64
2020/12/01 02:21:48;;;;;;;11.60;7.80;;;;;;;-1.76;79.88;100373.92;1765624;80;21155;-63
2020/12/01 02:24:20;;;;;;;11.28;8.15;;;;;;;-1.74;79.90;100378.64;1771306;81;21488;-63
2020/12/01 02:26:51;;;;;;;10.70;8.00;;;;;;;-1.69;79.80;100376.20;1771324;81;21170;-63
2020/12/01 02:29:20;;;;;;;11.25;8.40;;;;;;;-1.68;79.77;100380.06;1771305;81;21366;-63
2020/12/01 02:31:50;;;;;;;11.63;8.17;;;;;;;-1.65;79.82;100375.45;1771513;81;21581;-62
2020/12/01 02:34:21;;;;;;;10.55;7.30;;;;;;;-1.63;79.80;100382.73;1771345;79;21135;-63
2020/12/01 02:36:48;;;;;;;10.68;7.72;;;;;;;-1.61;79.78;100381.94;1771455;81;21150;-63
2020/12/01 02:39:22;;;;;;;9.05;7.42;;;;;;;-1.59;79.79;100374.28;1771464;81;21512;-63
2020/12/01 02:41:59;;;;;;;;;;;;;;;-1.53;79.76;100380.39;1774137;79;21373;-63
2020/12/01 02:44:26;;;;;;;10.82;7.40;;;;;;;-1.48;79.59;100383.05;1771429;81;20217;-63
2020/12/01 02:46:57;;;;;;;11.95;7.83;;;;;;;-1.45;79.58;100375.47;1771501;79;21130;-63
2020/12/01 02:49:24;;;;;;;10.43;7.25;;;;;;;-1.44;79.49;100379.33;1771441;81;21068;-63
2020/12/01 02:51:52;;;;;;;10.43;7.95;;;;;;;-1.44;79.36;100378.47;1771439;81;21056;-63
2020/12/01 02:54:19;;;;;;;10.10;7.83;;;;;;;-1.42;79.33;100383.19;1771440;81;22200;-63
2020/12/01 02:56:47;;;;;;;10.08;6.92;;;;;;;-1.44;79.12;100382.29;1771385;81;21162;-63
2020/12/01 02:59:18;;;;;;;10.45;7.80;;;;;;;-1.46;79.12;100384.81;1771484;81;21048;-63
2020/12/01 03:01:46;;;;;;;9.90;7.50;;;;;;;-1.52;79.15;100377.02;1771434;81;21076;-63
2020/12/01 03:04:13;;;;;;;10.65;7.70;;;;;;;-1.56;79.06;100373.08;1771408;81;21043;-63
2020/12/01 03:06:41;;;;;;;10.20;6.90;;;;;;;-1.59;79.14;100375.56;1771518;81;22250;-64
2020/12/01 03:09:14;;;;;;;11.50;8.23;;;;;;;-1.62;79.12;100378.94;1771347;81;21134;-64
2020/12/01 03:11:42;;;;;;;10.93;7.33;;;;;;;-1.67;79.19;100380.52;1771472;81;21083;-63
2020/12/01 03:14:10;;;;;;;9.85;7.05;;;;;;;-1.70;79.38;100382.99;1771407;81;21075;-64
2020/12/01 03:16:38;;;;;;;9.65;6.95;;;;;;;-1.71;79.42;100380.41;1771499;81;21578;-64
2020/12/01 03:19:06;;;;;;;11.30;8.05;;;;;;;-1.74;79.48;100379.50;1771410;81;21162;-63
2020/12/01 03:21:33;;;;;;;9.13;6.58;;;;;;;-1.72;79.59;100373.17;1771343;81;21079;-63
2020/12/01 03:24:02;;;;;;;10.98;7.15;;;;;;;-1.70;79.53;100374.48;1769519;81;21566;-63
2020/12/01 03:26:30;;;;;;;10.93;7.95;;;;;;;-1.68;79.45;100375.38;1769215;81;21571;-64
2020/12/01 03:28:57;;;;;;;10.30;7.70;;;;;;;-1.70;79.51;100380.44;1769304;80;21638;-63
2020/12/01 03:31:25;;;;;;;11.05;8.15;;;;;;;-1.66;79.63;100373.72;1769223;81;21475;-64
2020/12/01 03:33:52;;;;;;;13.05;7.40;;;;;;;-1.61;79.62;100379.38;1769108;79;21067;-64
2020/12/01 03:36:20;;;;;;;9.15;7.62;;;;;;;-1.53;79.57;100383.36;1769221;80;21112;-64
2020/12/01 03:38:49;;;;;;;10.48;8.00;;;;;;;-1.45;79.43;100379.30;1769185;81;21111;-64
2020/12/01 03:41:16;;;;;;;10.75;8.08;;;;;;;-1.39;79.30;100378.98;1769211;81;21071;-63
2020/12/01 03:43:44;;;;;;;9.75;7.72;;;;;;;-1.36;78.93;100376.05;1769254;81;22102;-64
2020/12/01 03:46:12;;;;;;;10.30;7.53;;;;;;;-1.35;79.15;100379.05;1769122;81;21848;-64
2020/12/01 03:48:39;;;;;;;10.63;7.97;;;;;;;-1.28;79.03;100380.91;1769199;81;21098;-64
2020/12/01 03:51:07;;;;;;;11.88;8.30;;;;;;;-1.27;78.79;100385.19;1769160;81;21634;-64
2020/12/01 03:53:35;;;;;;;8.60;6.47;;;;;;;-1.26;78.77;100377.57;1769174;81;21154;-64
2020/12/01 03:56:03;;;;;;;11.28;7.70;;;;;;;-1.26;78.76;100372.46;1769186;81;21365;-64
2020/12/01 03:58:30;;;;;;;10.20;7.37;;;;;;;-1.25;78.78;100369.08;1769124;81;21135;-64
2020/12/01 04:00:58;;;;;;;10.48;7.83;;;;;;;-1.23;78.82;100371.67;1769164;81;21103;-64
2020/12/01 04:03:25;;;;;;;11.53;8.38;;;;;;;-1.21;78.75;100373.42;1769229;80;21488;-64
2020/12/01 04:05:53;;;;;;;9.60;8.00;;;;;;;-1.24;78.60;100370.81;1769170;80;21060;-64
2020/12/01 04:08:20;;;;;;;10.58;7.92;;;;;;;-1.26;78.72;100381.39;1769176;81;21499;-64
2020/12/01 04:10:49;;;;;;;10.78;7.78;;;;;;;-1.29;78.79;100376.22;1769183;81;21118;-64
2020/12/01 04:13:17;;;;;;;10.00;7.55;;;;;;;-1.31;78.85;100372.78;1769170;81;21162;-64
2020/12/01 04:15:45;;;;;;;13.05;8.08;;;;;;;-1.33;78.89;100374.84;1769185;81;21067;-63
2020/12/01 04:18:12;;;;;;;14.58;7.97;;;;;;;-1.37;79.04;100380.30;1769187;81;21075;-64
2020/12/01 04:20:43;;;;;;;10.75;8.15;;;;;;;-1.37;79.12;100373.05;1769127;80;21570;-64
2020/12/01 04:23:10;;;;;;;13.22;9.20;;;;;;;-1.39;79.19;100378.12;1769801;80;21107;-64
2020/12/01 04:25:38;;;;;;;14.18;9.70;;;;;;;-1.41;79.20;100373.02;1771443;81;21130;-64
2020/12/01 04:28:05;;;;;;;12.03;8.80;;;;;;;-1.42;79.30;100376.39;1771348;81;21523;-64
2020/12/01 04:30:33;;;;;;;12.35;8.80;;;;;;;-1.42;79.34;100374.26;1771367;81;21047;-63
2020/12/01 04:33:01;;;;;;;15.38;9.93;;;;;;;-1.41;79.25;100374.70;1771321;81;21209;-64
2020/12/01 04:35:28;;;;;;;12.63;9.53;;;;;;;-1.43;79.23;100374.67;1771252;79;21155;-64
2020/12/01 04:37:59;;;;;;;14.58;10.05;;;;;;;-1.42;79.25;100375.53;1771350;81;21071;-64
2020/12/01 04:40:28;;;;;;;11.18;8.93;;;;;;;-1.45;79.25;100377.60;1771335;81;21067;-64
2020/12/01 04:45:46;;;;;;;10.58;7.75;;;;;;;-1.44;79.16;100378.05;1873668;76;22764;-63
2020/12/01 04:48:25;;;;;;;13.30;9.45;;;;;;;-1.48;79.17;100380.09;1841596;78;21049;-63
2020/12/01 04:50:58;;;;;;;14.70;10.15;;;;;;;-1.49;79.03;100374.95;1841673;78;23436;-63
2020/12/01 04:53:41;;;;;;;;;;;;;;;-1.53;78.97;100372.73;1844364;78;21490;-64
2020/12/01 04:56:27;;;;;;;13.58;8.95;;;;;;;-1.58;78.94;100373.05;1841450;78;20584;-63
2020/12/01 04:59:34;;;;;;;16.75;10.90;;;;;;;-1.63;78.95;100368.28;1841608;78;21046;-64
2020/12/01 05:02:51;;;;;;;14.60;10.20;;;;;;;-1.70;78.99;100375.34;1815356;78;21038;-64
2020/12/01 05:05:51;;;;;;;16.25;10.13;;;;;;;-1.78;79.14;100376.44;1841472;78;23593;-63
2020/12/01 05:08:40;;;;;;;14.33;9.33;;;;;;;-1.86;79.33;100373.28;1839816;78;21120;-63
2020/12/01 05:11:20;;;;;;;13.65;9.50;;;;;;;-1.90;79.47;100378.72;1841565;78;21109;-63
2020/12/01 05:13:53;;;;;;;13.40;8.50;;;;;;;-1.96;79.63;100374.74;1841559;78;21140;-64
2020/12/01 05:16:35;;;;;;;14.43;9.33;;;;;;;-2.00;79.82;100371.70;1841677;78;21097;-64
2020/12/01 05:19:03;;;;;;;13.83;8.90;;;;;;;-2.03;79.91;100369.48;1841299;78;21336;-64
2020/12/01 05:21:31;;;;;;;15.53;10.05;;;;;;;-2.07;80.12;100371.09;1841474;78;21108;-64
2020/12/01 05:23:59;;;;;;;15.80;10.40;;;;;;;-2.04;80.21;100375.41;1841502;77;21133;-63
2020/12/01 05:26:29;;;;;;;14.65;9.98;;;;;;;-2.01;80.32;100380.58;1841515;78;21050;-64
2020/12/01 05:28:56;;;;;;;18.77;10.60;;;;;;;-1.99;80.17;100381.03;1786104;78;21699;-63
2020/12/01 05:31:28;;;;;;;15.65;9.13;;;;;;;-2.00;80.20;100387.00;1841569;78;21325;-63
2020/12/01 05:34:05;;;;;;;13.28;9.70;;;;;;;-2.00;80.32;100384.45;1831297;78;21525;-63
2020/12/01 05:36:36;;;;;;;11.48;8.50;;;;;;;-1.98;80.31;100383.17;1808539;79;20930;-64
2020/12/01 05:39:19;;;;;;;13.65;8.53;;;;;;;-2.00;80.21;100388.27;1808538;79;21061;-63
2020/12/01 05:42:04;;;;;;;13.18;8.70;;;;;;;-2.01;80.28;100394.60;1808379;79;21188;-64
2020/12/01 05:44:33;;;;;;;12.30;8.00;;;;;;;-2.03;80.37;100385.64;1805123;78;21175;-64
2020/12/01 05:47:16;;;;;;;11.68;8.80;;;;;;;-2.01;80.56;100387.81;1800289;79;21222;-64
2020/12/01 05:50:06;;;;;;;12.95;8.18;;;;;;;-1.97;80.56;100388.73;1800830;78;21060;-64
2020/12/01 05:52:57;;;;;;;15.20;8.60;;;;;;;-1.92;80.45;100390.56;1800571;78;20926;-64
2020/12/01 05:55:26;;;;;;;14.00;9.05;;;;;;;-1.91;80.45;100392.70;1800410;79;21069;-64
2020/12/01 05:58:06;;;;;;;49.60;25.12;;;;;;;-1.90;80.35;100391.47;1799966;79;21355;-65
2020/12/01 06:00:36;;;;;;;45.45;22.45;;;;;;;-1.88;80.46;100394.91;1799806;78;21060;-64
2020/12/01 06:03:21;;;;;;;24.25;12.90;;;;;;;-1.85;80.38;100397.95;1798717;79;21624;-63
2020/12/01 06:05:56;;;;;;;14.87;10.70;;;;;;;-1.84;80.46;100397.13;1785310;79;21183;-64
2020/12/01 06:08:55;;;;;;;16.07;10.48;;;;;;;-1.81;80.44;100398.48;1765195;79;21147;-64
2020/12/01 06:11:53;;;;;;;54.38;30.40;;;;;;;-1.82;80.52;100405.27;1767040;79;22377;-65
2020/12/01 06:15:05;;;;;;;31.33;20.62;;;;;;;-1.85;80.71;100396.27;1767424;81;21723;-66
2020/12/01 06:18:17;;;;;;;28.75;21.82;;;;;;;-1.86;80.89;100390.72;1670133;85;21261;-66
2020/12/01 06:21:04;;;;;;;49.08;35.68;;;;;;;-1.84;81.03;100397.98;1665445;84;21164;-66
2020/12/01 06:24:01;;;;;;;29.65;22.48;;;;;;;-1.79;81.12;100398.07;1655904;84;21194;-67
2020/12/01 06:30:15;;;;;;;14.05;10.03;;;;;;;-1.69;80.95;100390.23;1655051;84;21229;-67
2020/12/01 06:32:57;;;;;;;15.90;11.15;;;;;;;-1.67;80.83;100389.44;1655449;86;21148;-67
2020/12/01 06:36:15;;;;;;;15.32;10.23;;;;;;;-1.67;80.93;100389.44;1626749;86;21217;-67
2020/12/01 06:39:05;;;;;;;16.05;11.57;;;;;;;-1.68;81.04;100387.72;1621036;88;21991;-67
2020/12/01 06:41:37;;;;;;;14.93;10.85;;;;;;;-1.69;81.15;100389.81;1625613;86;21401;-66
2020/12/01 06:44:05;;;;;;;15.90;11.25;;;;;;;-1.64;81.14;100396.30;1626841;88;21253;-66
2020/12/01 06:46:44;;;;;;;20.82;10.40;;;;;;;-1.59;81.13;100398.52;1583399;87;21657;-68
2020/12/01 06:49:17;;;;;;;14.13;10.23;;;;;;;-1.54;81.06;100402.05;1626750;88;21411;-66
2020/12/01 06:51:47;;;;;;;11.95;9.23;;;;;;;-1.47;80.99;100409.02;1621938;86;21202;-66
2020/12/01 06:54:15;;;;;;;11.35;8.30;;;;;;;-1.40;80.90;100411.70;1653288;86;22311;-68
2020/12/01 06:56:54;;;;;;;13.88;9.98;;;;;;;-1.34;80.64;100408.84;1653180;86;21178;-64
2020/12/01 06:59:24;;;;;;;13.48;9.63;;;;;;;-1.31;80.72;100415.30;1653101;86;21510;-62
2020/12/01 07:01:52;;;;;;;16.25;11.00;;;;;;;-1.25;80.59;100414.16;1653040;86;21266;-62
2020/12/01 07:04:27;;;;;;;18.42;10.08;;;;;;;-1.20;80.58;100416.41;1651307;86;21164;-63
2020/12/01 07:07:01;;;;;;;15.50;9.73;;;;;;;-1.13;80.50;100418.23;1653437;86;21289;-64
2020/12/01 07:09:43;;;;;;;15.85;10.85;;;;;;;-1.08;80.42;100425.58;1654184;86;21222;-63
2020/12/01 07:12:25;;;;;;;14.75;10.30;;;;;;;-1.02;80.33;100414.64;1605465;88;21210;-63
2020/12/01 07:15:14;;;;;;;13.32;9.85;;;;;;;-0.97;80.09;100410.45;1654397;86;21266;-63
2020/12/01 07:18:06;;;;;;;14.68;10.10;;;;;;;-0.95;80.17;100405.84;1639273;86;21852;-68
2020/12/01 07:20:45;;;;;;;13.90;10.18;;;;;;;-0.91;80.27;100414.01;1639387;86;21393;-66
2020/12/01 07:23:36;;;;;;;14.43;10.50;;;;;;;-0.88;80.07;100402.58;1639417;86;21229;-64
2020/12/01 07:26:41;;;;;;;13.10;9.73;;;;;;;-0.88;79.77;100404.27;1640875;87;21643;-64
2020/12/01 07:29:27;;;;;;;16.20;10.65;;;;;;;-0.89;79.80;100408.93;1602670;88;21590;-62
2020/12/01 07:32:05;;;;;;;16.90;10.40;;;;;;;-0.88;79.76;100407.69;1628860;86;21169;-63
2020/12/01 07:34:33;;;;;;;25.08;10.40;;;;;;;-0.84;79.75;100412.45;1615666;88;21426;-63
2020/12/01 07:37:47;;;;;;;15.58;10.32;;;;;;;-0.84;79.89;100415.86;1619510;88;21228;-64
2020/12/01 07:40:18;;;;;;;;;;;;;;;-0.82;79.69;100418.03;1622310;88;21202;-63
2020/12/01 07:42:45;;;;;;;12.18;9.10;;;;;;;-0.82;79.62;100415.89;1618915;88;20350;-62
2020/12/01 07:45:16;;;;;;;15.95;9.48;;;;;;;-0.84;79.64;100407.34;1619093;88;21294;-63
2020/12/01 07:47:43;;;;;;;14.70;9.80;;;;;;;-0.85;79.79;100406.48;1618497;88;21259;-64
2020/12/01 07:50:20;;;;;;;19.20;9.75;;;;;;;-0.83;79.84;100413.75;1620139;88;21241;-64
2020/12/01 07:52:47;;;;;;;13.70;9.43;;;;;;;-0.83;79.96;100398.84;1598715;88;21175;-65
2020/12/01 07:55:34;;;;;;;12.35;8.70;;;;;;;-0.80;79.59;100411.23;1620397;87;21126;-66
2020/12/01 07:58:17;;;;;;;17.02;11.95;;;;;;;-0.81;79.55;100415.06;1619339;87;21174;-66
2020/12/01 08:00:53;;;;;;;15.85;9.98;;;;;;;-0.75;79.86;100409.63;1618898;88;22311;-66
2020/12/01 08:03:38;;;;;;;14.53;9.98;;;;;;;-0.64;80.02;100413.69;1619362;88;21249;-68
2020/12/01 08:06:12;;;;;;;12.88;9.90;;;;;;;-0.52;79.70;100413.89;1620286;87;21183;-66
2020/12/01 08:08:44;;;;;;;14.33;9.73;;;;;;;-0.43;78.76;100417.05;1619998;88;21166;-66
2020/12/01 08:11:17;;;;;;;14.55;9.98;;;;;;;-0.40;78.83;100423.05;1620643;88;21162;-65
2020/12/01 08:13:46;;;;;;;11.55;8.90;;;;;;;-0.37;78.58;100423.11;1619768;87;21378;-66
2020/12/01 08:16:20;;;;;;;12.03;9.50;;;;;;;-0.30;78.49;100408.75;1621064;87;21968;-65
2020/12/01 08:18:51;;;;;;;12.65;8.48;;;;;;;-0.20;78.12;100419.56;1619349;88;21170;-66
2020/12/01 08:21:41;;;;;;;11.97;8.93;;;;;;;-0.09;76.79;100427.01;1616613;87;21284;-68
2020/12/01 08:24:15;;;;;;;10.10;7.83;;;;;;;-0.08;76.53;100412.11;1651828;85;21208;-67
2020/12/01 08:26:44;;;;;;;12.23;8.53;;;;;;;-0.11;76.18;100411.19;1651302;86;21377;-66
2020/12/01 08:29:19;;;;;;;11.65;7.25;;;;;;;-0.18;76.75;100425.98;1653078;86;21121;-66
2020/12/01 08:32:18;;;;;;;11.88;8.18;;;;;;;-0.24;76.16;100408.00;1652738;86;21508;-65
2020/12/01 08:35:10;;;;;;;11.57;8.08;;;;;;;-0.30;76.03;100401.08;1636692;87;21234;-66
2020/12/01 08:38:05;;;;;;;8.58;6.67;;;;;;;-0.37;76.34;100390.30;1656454;86;21150;-64
2020/12/01 08:41:04;;;;;;;10.23;7.65;;;;;;;-0.46;76.33;100412.73;1888892;76;22661;-66
2020/12/01 08:43:44;;;;;;;9.68;7.15;;;;;;;-0.57;77.04;100404.41;1860119;77;21468;-64
2020/12/01 08:46:29;;;;;;;10.60;7.30;;;;;;;-0.60;77.37;100392.89;1860789;77;21176;-66
2020/12/01 08:49:06;;;;;;;9.78;6.95;;;;;;;-0.59;77.54;100395.44;1860645;77;21084;-66
2020/12/01 08:51:58;;;;;;;11.25;8.38;;;;;;;-0.53;77.31;100401.95;1860860;77;21022;-64
2020/12/01 08:54:32;;;;;;;9.83;8.25;;;;;;;-0.44;77.70;100398.71;1827121;77;20962;-65
2020/12/01 08:57:13;;;;;;;9.85;7.30;;;;;;;-0.30;77.36;100393.41;1860298;77;21048;-64
2020/12/01 08:59:57;;;;;;;19.35;13.95;;;;;;;-0.19;76.89;100390.59;1860028;77;21451;-64
2020/12/01 09:02:24;;;;;;;14.43;11.15;;;;;;;-0.10;76.49;100392.05;1859688;77;21596;-64
2020/12/01 09:05:01;;;;;;;20.95;15.28;;;;;;;-0.08;75.96;100382.70;1795410;78;21155;-63
2020/12/01 09:07:42;;;;;;;11.57;8.60;;;;;;;-0.05;76.49;100385.73;1753952;81;21194;-62
2020/12/01 09:10:22;;;;;;;13.68;8.73;;;;;;;-0.05;76.30;100380.20;1779031;80;21668;-65
2020/12/01 09:13:22;;;;;;;12.55;7.75;;;;;;;-0.05;76.28;100377.64;1756410;81;21368;-62
2020/12/01 09:16:14;;;;;;;13.48;10.05;;;;;;;-0.10;76.09;100362.64;1777664;80;21516;-60
2020/12/01 09:18:44;;;;;;;14.18;8.10;;;;;;;-0.14;76.13;100361.28;1776151;80;21183;-61
2020/12/01 09:24:03;;;;;;;10.72;8.78;;;;;;;-0.19;75.53;100366.73;1826516;76;27784;-62
2020/12/01 09:26:31;;;;;;;12.55;8.05;;;;;;;-0.24;75.80;100351.34;1814222;79;21039;-63
2020/12/01 09:28:59;;;;;;;11.48;7.28;;;;;;;-0.23;75.92;100352.20;1814302;79;21937;-61
2020/12/01 09:31:28;;;;;;;11.80;6.55;;;;;;;-0.24;76.11;100364.12;1813040;77;21106;-67
2020/12/01 09:33:56;;;;;;;11.30;6.65;;;;;;;-0.20;76.11;100356.09;1806340;77;21610;-66
2020/12/01 09:36:25;;;;;;;9.48;6.70;;;;;;;-0.19;75.47;100359.06;1774095;80;21137;-67
2020/12/01 09:38:54;;;;;;;11.70;6.55;;;;;;;-0.20;76.00;100350.53;1731458;82;21177;-64
2020/12/01 09:41:24;;;;;;;11.12;7.12;;;;;;;-0.18;75.93;100346.72;1702798;82;22776;-65
2020/12/01 09:46:33;;;;;;;10.17;6.60;;;;;;;-0.14;76.09;100349.36;1742718;81;21210;-63
2020/12/01 09:48:53;;;;;;;8.55;6.90;;;;;;;-0.10;76.50;100346.44;1713155;82;21091;-64
2020/12/01 09:51:21;;;;;;;10.85;8.05;;;;;;;-0.09;76.33;100334.95;1733487;82;21092;-65
2020/12/01 09:54:14;;;;;;;11.78;7.55;;;;;;;-0.06;76.43;100339.26;1727109;82;22171;-63
2020/12/01 10:26:19;;;;;;;9.53;7.87;;;;;;;-0.16;77.78;100330.57;1770922;80;21249;-64
2020/12/01 10:32:01;;;;;;;12.37;8.45;;;;;;;-0.16;77.88;100330.57;1854457;76;21175;-65
2020/12/01 10:34:26;;;;;;;;;;;;;;;-0.16;77.99;100320.34;1851890;76;21143;-64
2020/12/01 10:36:55;;;;;;;10.80;8.43;;;;;;;-0.17;78.25;100322.45;1857553;76;20223;-63
2020/12/01 10:39:23;;;;;;;11.33;8.13;;;;;;;-0.18;78.63;100314.34;1856940;77;21154;-64
2020/12/01 10:41:51;;;;;;;11.15;8.35;;;;;;;-0.17;78.41;100312.65;1858254;77;21071;-63
2020/12/01 10:44:19;;;;;;;12.50;9.28;;;;;;;-0.17;78.58;100316.48;1858913;77;21504;-64
2020/12/01 10:46:50;;;;;;;9.65;7.28;;;;;;;-0.14;79.03;100323.79;1858740;76;22381;-63
2020/12/01 10:49:18;;;;;;;9.80;7.70;;;;;;;-0.14;78.52;100316.12;1858586;76;20989;-64
2020/12/01 10:51:49;;;;;;;12.78;8.35;;;;;;;-0.18;79.31;100328.41;1858718;77;21111;-63
2020/12/01 10:54:18;;;;;;;10.95;9.40;;;;;;;-0.22;78.90;100316.86;1858698;77;21184;-67
2020/12/01 10:56:49;;;;;;;11.53;8.33;;;;;;;-0.25;79.16;100316.39;1858673;77;21087;-64
2020/12/01 10:59:17;;;;;;;11.80;8.73;;;;;;;-0.27;79.53;100325.72;1858831;77;23504;-65
2020/12/01 11:01:45;;;;;;;11.22;8.73;;;;;;;-0.28;79.67;100309.08;1858624;75;21122;-66
2020/12/01 11:04:13;;;;;;;11.73;9.65;;;;;;;-0.32;80.19;100310.73;1858652;77;21033;-64
2020/12/01 11:06:41;;;;;;;13.25;8.78;;;;;;;-0.34;80.48;100294.50;1842038;77;21084;-65
2020/12/01 11:09:15;;;;;;;10.72;8.75;;;;;;;-0.35;80.40;100288.53;1858759;77;21056;-65
2020/12/01 11:11:43;;;;;;;12.47;9.20;;;;;;;-0.33;80.65;100287.70;1858515;77;21352;-64
2020/12/01 11:14:11;;;;;;;11.28;8.45;;;;;;;-0.32;81.01;100280.47;1858519;77;21048;-61
2020/12/01 11:16:41;;;;;;;11.78;9.65;;;;;;;-0.30;81.33;100282.64;1858457;76;21100;-65
2020/12/01 11:19:08;;;;;;;11.78;9.50;;;;;;;-0.27;81.33;100276.30;1857596;77;21178;-63
2020/12/01 11:21:36;;;;;;;12.20;9.55;;;;;;;-0.23;81.12;100269.12;1857626;77;21151;-63
2020/12/01 11:24:05;;;;;;;11.53;9.58;;;;;;;-0.27;81.00;100275.02;1858099;77;21460;-63
2020/12/01 11:26:33;;;;;;;13.05;10.05;;;;;;;-0.28;81.66;100276.71;1857334;76;21564;-63
2020/12/01 11:29:02;;;;;;;13.70;10.05;;;;;;;-0.29;82.06;100277.97;1838574;77;21136;-65
2020/12/01 11:34:16;;;;;;;12.20;9.15;;;;;;;-0.28;81.61;100287.36;1860424;76;22723;-63
2020/12/01 11:36:44;;;;;;;11.70;9.30;;;;;;;-0.35;81.59;100289.81;1808552;79;21176;-64
2020/12/01 11:39:13;;;;;;;13.70;10.48;;;;;;;-0.37;81.79;100281.25;1807445;78;21120;-63
2020/12/01 11:41:43;;;;;;;15.03;10.78;;;;;;;-0.40;81.93;100289.32;1807587;79;21589;-64
2020/12/01 11:44:14;;;;;;;13.43;9.40;;;;;;;-0.43;82.35;100290.12;1808096;79;21581;-62
2020/12/01 11:46:42;;;;;;;17.82;10.90;;;;;;;-0.45;82.24;100285.83;1808233;78;21176;-64
2020/12/01 11:49:10;;;;;;;11.53;8.80;;;;;;;-0.45;82.21;100289.23;1808187;79;21446;-64
2020/12/01 11:51:39;;;;;;;13.20;9.93;;;;;;;-0.44;82.18;100296.48;1807760;78;21344;-63
2020/12/01 11:54:24;;;;;;;20.12;14.65;;;;;;;-0.42;82.50;100288.02;1806382;78;21098;-64
2020/12/01 11:57:04;;;;;;;13.00;9.08;;;;;;;-0.39;82.46;100289.73;1800128;77;21182;-62
2020/12/01 11:59:32;;;;;;;10.82;8.85;;;;;;;-0.35;82.59;100293.64;1793039;78;21176;-64
2020/12/01 12:02:21;;;;;;;11.60;9.00;;;;;;;-0.32;82.52;100299.22;1806974;78;21180;-63
2020/12/01 12:04:59;;;;;;;10.43;8.55;;;;;;;-0.30;82.21;100299.25;1805783;78;21187;-64
2020/12/01 12:07:27;;;;;;;11.60;8.00;;;;;;;-0.32;81.78;100294.11;1804820;78;21156;-64
2020/12/01 12:10:12;;;;;;;11.12;8.73;;;;;;;-0.36;82.14;100290.64;1802608;78;21190;-64
2020/12/01 12:12:39;;;;;;;8.78;6.85;;;;;;;-0.37;81.94;100288.06;1791674;79;21194;-64
2020/12/01 12:15:07;;;;;;;11.83;9.05;;;;;;;-0.37;81.91;100286.36;1796668;79;21169;-64
2020/12/01 12:17:35;;;;;;;11.30;7.80;;;;;;;-0.37;81.84;100290.62;1791440;78;21204;-64
2020/12/01 12:20:05;;;;;;;10.98;7.80;;;;;;;-0.39;81.41;100282.06;1805496;79;21069;-63
2020/12/01 12:22:35;;;;;;;12.93;8.25;;;;;;;-0.40;81.83;100290.59;1807874;79;21184;-64
2020/12/01 12:25:03;;;;;;;10.53;8.95;;;;;;;-0.40;81.53;100285.48;1806221;79;21606;-64
2020/12/01 12:27:32;;;;;;;12.00;9.93;;;;;;;-0.40;81.53;100288.87;1805050;79;21198;-64
2020/12/01 12:29:59;;;;;;;13.75;9.93;;;;;;;-0.39;82.00;100282.92;1806749;78;21156;-64
2020/12/01 12:32:27;;;;;;;13.53;10.82;;;;;;;-0.34;82.39;100286.84;1807927;79;21306;-64
2020/12/01 12:34:55;;;;;;;12.30;10.03;;;;;;;-0.31;82.11;100286.02;1763065;81;21062;-63
2020/12/01 12:37:22;;;;;;;12.40;10.88;;;;;;;-0.32;81.85;100281.33;1743603;82;21170;-64